Time;durP1;ratioP1;P1;durP2;ratioP2;P2;SDS_P1;SDS_P2;PMS_P1;PMS_P2;Temp;Humidity;BMP_temperature;BMP_pressure;BME280_temperature;BME280_humidity;BME280_pressure;Samples;Min_cycle;Max_cycle;Signal;HPM_P1;HPM_P2
2022/09/21 00:00:11;;;;;;;8.30;6.00;;;;;;;;;;5075124;28;20282;-71
2022/09/21 00:02:38;;;;;;;7.63;6.60;;;;;;;;;;5074746;28;20216;-71
2022/09/21 00:05:07;;;;;;;7.78;6.13;;;;;;;;;;5075109;28;20247;-71
2022/09/21 00:07:34;;;;;;;7.90;5.38;;;;;;;;;;5074457;28;20213;-71
2022/09/21 00:10:01;;;;;;;10.60;6.35;;;;;;;;;;5074604;28;20297;-71
2022/09/21 00:12:28;;;;;;;12.15;7.63;;;;;;;;;;5075041;28;20285;-70
2022/09/21 00:14:57;;;;;;;12.35;6.93;;;;;;;;;;5075000;28;20297;-70
2022/09/21 00:17:24;;;;;;;8.63;7.03;;;;;;;;;;5074766;28;20201;-71
2022/09/21 00:19:51;;;;;;;7.90;7.10;;;;;;;;;;5074873;28;20196;-71
2022/09/21 00:22:20;;;;;;;10.85;7.55;;;;;;;;;;5074899;28;20222;-71
2022/09/21 00:24:47;;;;;;;8.30;6.57;;;;;;;;;;5074296;28;20308;-71
2022/09/21 00:27:14;;;;;;;6.75;6.15;;;;;;;;;;5074568;28;20205;-71
2022/09/21 00:29:42;;;;;;;9.18;6.40;;;;;;;;;;5094952;28;20200;-72
2022/09/21 00:32:09;;;;;;;6.65;5.68;;;;;;;;;;5093175;28;20653;-71
2022/09/21 00:34:36;;;;;;;9.32;6.00;;;;;;;;;;5094428;28;20246;-71
2022/09/21 00:37:03;;;;;;;8.38;7.03;;;;;;;;;;5094912;28;20200;-70
2022/09/21 00:39:32;;;;;;;7.80;6.63;;;;;;;;;;5094330;28;20563;-71
2022/09/21 00:42:00;;;;;;;7.78;5.72;;;;;;;;;;5094173;28;20209;-70
2022/09/21 00:44:29;;;;;;;8.60;7.10;;;;;;;;;;5094195;28;20216;-70
2022/09/21 00:46:58;;;;;;;6.28;5.63;;;;;;;;;;5094124;28;20204;-72
2022/09/21 00:49:26;;;;;;;5.97;5.38;;;;;;;;;;5094185;28;20193;-72
2022/09/21 00:51:54;;;;;;;5.90;5.22;;;;;;;;;;5094335;28;20198;-71
2022/09/21 00:54:32;;;;;;;6.80;6.07;;;;;;;;;;5093958;28;20282;-71
2022/09/21 00:57:02;;;;;;;6.40;5.72;;;;;;;;;;5094020;28;20192;-71
2022/09/21 00:59:30;;;;;;;9.57;6.00;;;;;;;;;;5094288;28;20279;-71
2022/09/21 01:01:58;;;;;;;6.57;5.97;;;;;;;;;;5082717;28;20237;-71
2022/09/21 01:04:27;;;;;;;6.10;5.50;;;;;;;;;;5073929;28;20222;-71
2022/09/21 01:06:55;;;;;;;9.43;5.63;;;;;;;;;;5074136;28;20678;-70
2022/09/21 01:09:22;;;;;;;5.90;5.30;;;;;;;;;;5090916;28;20195;-72
2022/09/21 01:11:54;;;;;;;6.70;5.35;;;;;;;;;;5094368;28;20497;-71
2022/09/21 01:14:35;;;;;;;10.07;5.82;;;;;;;;;;5094129;28;20192;-71
2022/09/21 01:17:07;;;;;;;6.63;5.93;;;;;;;;;;5094032;28;20189;-70
2022/09/21 01:19:49;;;;;;;6.10;4.72;;;;;;;;;;5093907;28;20192;-71
2022/09/21 01:22:20;;;;;;;7.28;5.47;;;;;;;;;;5077125;28;20562;-70
2022/09/21 01:24:52;;;;;;;7.72;5.57;;;;;;;;;;5093411;28;20208;-71
2022/09/21 01:27:27;;;;;;;5.78;5.15;;;;;;;;;;5093406;28;20195;-70
2022/09/21 01:29:57;;;;;;;6.20;5.60;;;;;;;;;;5093271;28;20196;-70
2022/09/21 01:32:27;;;;;;;9.05;6.40;;;;;;;;;;5093291;28;20196;-71
2022/09/21 01:34:56;;;;;;;9.52;6.28;;;;;;;;;;5093958;28;20525;-71
2022/09/21 01:37:25;;;;;;;7.93;5.90;;;;;;;;;;5093037;28;20686;-70
2022/09/21 01:39:54;;;;;;;6.40;5.70;;;;;;;;;;5093897;28;20222;-70
2022/09/21 01:42:24;;;;;;;6.93;6.15;;;;;;;;;;5093578;28;20232;-70
2022/09/21 01:44:51;;;;;;;7.60;5.70;;;;;;;;;;5092888;28;20235;-70
2022/09/21 01:47:21;;;;;;;9.27;5.70;;;;;;;;;;5093055;28;20197;-70
2022/09/21 01:49:51;;;;;;;8.30;5.88;;;;;;;;;;5093442;28;20242;-70
2022/09/21 01:52:20;;;;;;;12.90;6.10;;;;;;;;;;5093262;28;20606;-69
2022/09/21 01:54:50;;;;;;;8.70;6.13;;;;;;;;;;5093082;28;20289;-70
2022/09/21 01:57:19;;;;;;;9.27;5.75;;;;;;;;;;5092982;28;20197;-69
2022/09/21 01:59:49;;;;;;;9.98;6.10;;;;;;;;;;5093443;28;20289;-70
2022/09/21 02:02:19;;;;;;;8.98;6.50;;;;;;;;;;5078917;28;20279;-70
2022/09/21 02:04:47;;;;;;;6.85;6.10;;;;;;;;;;5072838;28;20217;-70
2022/09/21 02:07:16;;;;;;;9.50;6.70;;;;;;;;;;5072880;28;20194;-69
2022/09/21 02:09:45;;;;;;;9.73;6.05;;;;;;;;;;5092524;28;20629;-70
2022/09/21 02:12:13;;;;;;;6.65;6.00;;;;;;;;;;5093236;28;20559;-70
2022/09/21 02:14:40;;;;;;;8.40;6.05;;;;;;;;;;5092970;28;20208;-70
2022/09/21 02:17:16;;;;;;;12.13;6.55;;;;;;;;;;5093084;28;20195;-70
2022/09/21 02:19:46;;;;;;;10.65;7.05;;;;;;;;;;5093079;28;20632;-70
2022/09/21 02:22:17;;;;;;;9.77;7.47;;;;;;;;;;5092951;28;20634;-71
2022/09/21 02:24:46;;;;;;;11.10;7.50;;;;;;;;;;5092903;28;20212;-70
2022/09/21 02:27:19;;;;;;;9.70;7.55;;;;;;;;;;5093031;28;20202;-71
2022/09/21 02:29:50;;;;;;;9.68;7.38;;;;;;;;;;5092464;28;20650;-70
2022/09/21 02:32:23;;;;;;;8.25;6.45;;;;;;;;;;5092644;28;20653;-70
2022/09/21 02:34:54;;;;;;;17.65;7.57;;;;;;;;;;5092560;28;20197;-71
2022/09/21 02:37:25;;;;;;;11.50;8.13;;;;;;;;;;5092923;28;20184;-70
2022/09/21 02:39:56;;;;;;;8.18;7.38;;;;;;;;;;5092867;28;20194;-71
2022/09/21 02:42:26;;;;;;;10.15;8.32;;;;;;;;;;5093195;28;20197;-70
2022/09/21 02:44:56;;;;;;;9.82;7.38;;;;;;;;;;5092751;28;20267;-70
2022/09/21 02:47:26;;;;;;;7.78;7.00;;;;;;;;;;5092928;28;20207;-71
2022/09/21 02:49:57;;;;;;;11.63;7.28;;;;;;;;;;5092805;28;20191;-70
2022/09/21 02:52:26;;;;;;;7.13;6.10;;;;;;;;;;5093243;28;20181;-70
2022/09/21 02:54:54;;;;;;;10.65;7.07;;;;;;;;;;5093225;28;20207;-70
2022/09/21 02:57:23;;;;;;;8.60;7.70;;;;;;;;;;5096625;28;20200;-70
2022/09/21 02:59:50;;;;;;;9.20;7.60;;;;;;;;;;5096668;28;20693;-71
2022/09/21 03:02:21;;;;;;;11.82;8.00;;;;;;;;;;5095455;28;20196;-70
2022/09/21 03:04:49;;;;;;;9.98;7.97;;;;;;;;;;5096653;28;20209;-70
2022/09/21 03:07:16;;;;;;;12.50;7.50;;;;;;;;;;5095745;28;20283;-69
2022/09/21 03:09:45;;;;;;;9.02;7.07;;;;;;;;;;5078692;28;20216;-70
2022/09/21 03:12:12;;;;;;;10.23;7.90;;;;;;;;;;5076079;28;20489;-69
2022/09/21 03:14:40;;;;;;;7.72;6.05;;;;;;;;;;5075603;28;20221;-70
2022/09/21 03:17:07;;;;;;;7.70;7.00;;;;;;;;;;5076039;28;20202;-71
2022/09/21 03:19:35;;;;;;;11.48;7.72;;;;;;;;;;5075840;28;20208;-70
2022/09/21 03:22:02;;;;;;;8.38;6.72;;;;;;;;;;5075555;28;20197;-71
2022/09/21 03:24:47;;;;;;;7.38;6.55;;;;;;;;;;5075730;28;20217;-71
2022/09/21 03:27:17;;;;;;;13.13;7.35;;;;;;;;;;5075882;28;20196;-70
2022/09/21 03:29:44;;;;;;;10.30;7.65;;;;;;;;;;5075334;28;20284;-71
2022/09/21 03:32:13;;;;;;;8.60;7.70;;;;;;;;;;5075911;28;20249;-70
2022/09/21 03:34:40;;;;;;;10.32;7.25;;;;;;;;;;5075581;28;20544;-70
2022/09/21 03:37:09;;;;;;;11.85;7.75;;;;;;;;;;5075681;28;20563;-70
2022/09/21 03:39:36;;;;;;;8.35;7.40;;;;;;;;;;5075534;28;20293;-70
2022/09/21 03:42:03;;;;;;;8.90;7.68;;;;;;;;;;5075665;28;20199;-71
2022/09/21 03:44:32;;;;;;;11.10;7.88;;;;;;;;;;5075319;28;20238;-71
2022/09/21 03:46:59;;;;;;;10.30;7.93;;;;;;;;;;5075407;28;20325;-71
2022/09/21 03:49:26;;;;;;;8.63;7.25;;;;;;;;;;5075323;28;20537;-71
2022/09/21 03:51:54;;;;;;;7.75;6.65;;;;;;;;;;5075031;28;20194;-71
2022/09/21 03:54:22;;;;;;;8.98;7.32;;;;;;;;;;5075208;28;20669;-70
2022/09/21 03:56:49;;;;;;;9.52;7.50;;;;;;;;;;5075309;28;20193;-71
2022/09/21 03:59:16;;;;;;;9.77;7.80;;;;;;;;;;5074778;28;20229;-71
2022/09/21 04:01:45;;;;;;;8.60;6.82;;;;;;;;;;5075079;28;20198;-70
2022/09/21 04:04:12;;;;;;;7.90;7.13;;;;;;;;;;5075427;28;20202;-70
2022/09/21 04:06:40;;;;;;;7.75;7.05;;;;;;;;;;5074929;28;20198;-70
2022/09/21 04:09:07;;;;;;;8.68;7.75;;;;;;;;;;5075245;28;20219;-69
2022/09/21 04:11:34;;;;;;;7.88;7.10;;;;;;;;;;5074834;28;20577;-70
2022/09/21 04:14:01;;;;;;;7.95;7.18;;;;;;;;;;5074877;28;20197;-70
2022/09/21 04:16:29;;;;;;;7.30;6.65;;;;;;;;;;5074917;28;20198;-71
2022/09/21 04:18:57;;;;;;;10.23;7.60;;;;;;;;;;5075357;28;20202;-71
2022/09/21 04:21:25;;;;;;;11.82;7.20;;;;;;;;;;5074649;28;20194;-70
2022/09/21 04:23:52;;;;;;;6.95;6.35;;;;;;;;;;5074684;28;20251;-71
2022/09/21 04:26:23;;;;;;;8.70;6.70;;;;;;;;;;5074626;28;20601;-71
2022/09/21 04:28:51;;;;;;;8.43;6.78;;;;;;;;;;5074398;28;20231;-72
2022/09/21 04:31:18;;;;;;;8.30;7.28;;;;;;;;;;5074563;28;20196;-71
2022/09/21 04:33:48;;;;;;;8.45;7.20;;;;;;;;;;5074524;28;20233;-70
2022/09/21 04:36:16;;;;;;;8.65;7.43;;;;;;;;;;5088963;28;20203;-70
2022/09/21 04:38:44;;;;;;;9.57;7.10;;;;;;;;;;5093671;28;20196;-71
2022/09/21 04:41:11;;;;;;;8.30;7.20;;;;;;;;;;5093410;28;20195;-69
2022/09/21 04:43:38;;;;;;;7.43;6.70;;;;;;;;;;5093704;28;20200;-70
2022/09/21 04:46:06;;;;;;;9.50;7.13;;;;;;;;;;5092636;28;20225;-71
2022/09/21 04:48:33;;;;;;;7.22;6.53;;;;;;;;;;5093931;28;20196;-70
2022/09/21 04:51:00;;;;;;;10.75;7.55;;;;;;;;;;5093882;28;20195;-70
2022/09/21 04:53:29;;;;;;;7.43;6.63;;;;;;;;;;5094427;28;20207;-70
2022/09/21 04:55:56;;;;;;;6.78;6.07;;;;;;;;;;5094129;28;20199;-71
2022/09/21 04:58:24;;;;;;;11.30;7.72;;;;;;;;;;5094111;28;20204;-70
2022/09/21 05:00:52;;;;;;;8.93;7.70;;;;;;;;;;5094409;28;20204;-71
2022/09/21 05:03:19;;;;;;;7.50;6.65;;;;;;;;;;5094024;28;20237;-71
2022/09/21 05:05:49;;;;;;;8.32;7.40;;;;;;;;;;5079871;28;20228;-72
2022/09/21 05:08:16;;;;;;;8.45;7.40;;;;;;;;;;5073486;28;20288;-71
2022/09/21 05:10:44;;;;;;;7.97;7.10;;;;;;;;;;5073038;28;20287;-72
2022/09/21 05:13:11;;;;;;;7.72;7.03;;;;;;;;;;5073649;28;20233;-71
2022/09/21 05:15:39;;;;;;;10.07;7.47;;;;;;;;;;5073200;28;20211;-69
2022/09/21 05:18:06;;;;;;;10.55;8.00;;;;;;;;;;5072939;28;20204;-72
2022/09/21 05:20:33;;;;;;;10.40;9.30;;;;;;;;;;5074020;28;20193;-72
2022/09/21 05:23:02;;;;;;;11.25;7.80;;;;;;;;;;5073480;28;20621;-72
2022/09/21 05:25:30;;;;;;;11.18;8.10;;;;;;;;;;5073271;28;20563;-72
2022/09/21 05:27:58;;;;;;;10.88;8.00;;;;;;;;;;5073031;28;20229;-72
2022/09/21 05:30:28;;;;;;;15.18;13.60;;;;;;;;;;5072583;28;20205;-71
2022/09/21 05:32:58;;;;;;;12.57;10.00;;;;;;;;;;5073425;28;20211;-72
2022/09/21 05:35:31;;;;;;;12.50;9.85;;;;;;;;;;5073043;28;20207;-72
2022/09/21 05:38:00;;;;;;;11.20;9.15;;;;;;;;;;5073057;28;20203;-72
2022/09/21 05:40:27;;;;;;;11.90;8.88;;;;;;;;;;5072797;28;20202;-71
2022/09/21 05:42:55;;;;;;;11.85;9.02;;;;;;;;;;5073112;28;20419;-72
2022/09/21 05:45:24;;;;;;;9.88;8.82;;;;;;;;;;5072924;28;20316;-71
2022/09/21 05:47:57;;;;;;;17.27;11.25;;;;;;;;;;5072655;28;20213;-71
2022/09/21 05:50:29;;;;;;;12.27;9.57;;;;;;;;;;5072286;28;20194;-71
2022/09/21 05:53:01;;;;;;;14.90;8.20;;;;;;;;;;5073040;28;20190;-72
2022/09/21 05:55:36;;;;;;;10.07;7.90;;;;;;;;;;5073096;28;20630;-70
2022/09/21 05:58:10;;;;;;;10.63;8.40;;;;;;;;;;5073089;28;20279;-72
2022/09/21 06:00:43;;;;;;;11.35;8.32;;;;;;;;;;5073435;28;20207;-72
2022/09/21 06:03:27;;;;;;;11.52;9.60;;;;;;;;;;5073262;28;20186;-72
2022/09/21 06:05:54;;;;;;;11.15;9.13;;;;;;;;;;5072791;28;20213;-72
2022/09/21 06:08:22;;;;;;;9.77;8.77;;;;;;;;;;5072392;28;20292;-72
2022/09/21 06:10:49;;;;;;;10.75;9.60;;;;;;;;;;5072012;28;20650;-72
2022/09/21 06:13:18;;;;;;;16.80;8.98;;;;;;;;;;5072417;28;20284;-74
2022/09/21 06:15:47;;;;;;;12.27;8.43;;;;;;;;;;5072753;28;20297;-72
2022/09/21 06:18:15;;;;;;;17.50;9.25;;;;;;;;;;5072788;28;20236;-72
2022/09/21 06:20:42;;;;;;;9.73;8.85;;;;;;;;;;5072401;28;20200;-72
2022/09/21 06:23:11;;;;;;;10.55;8.32;;;;;;;;;;5072483;28;20611;-72
2022/09/21 06:25:38;;;;;;;10.25;9.05;;;;;;;;;;5072375;28;20224;-72
2022/09/21 06:28:06;;;;;;;11.85;8.98;;;;;;;;;;5072066;28;20230;-71
2022/09/21 06:30:34;;;;;;;17.08;9.18;;;;;;;;;;5075315;28;20193;-71
2022/09/21 06:33:03;;;;;;;10.23;8.90;;;;;;;;;;5076127;28;20197;-73
2022/09/21 06:35:34;;;;;;;21.25;10.65;;;;;;;;;;5076482;28;20602;-71
2022/09/21 06:38:02;;;;;;;13.48;9.35;;;;;;;;;;5076341;28;20284;-71
2022/09/21 06:40:29;;;;;;;16.88;10.45;;;;;;;;;;5076329;28;20284;-72
2022/09/21 06:42:57;;;;;;;20.08;10.38;;;;;;;;;;5076223;28;20194;-72
2022/09/21 06:45:28;;;;;;;15.75;9.10;;;;;;;;;;5076416;28;20686;-72
2022/09/21 06:47:56;;;;;;;12.70;9.05;;;;;;;;;;5076291;28;20190;-71
2022/09/21 06:50:24;;;;;;;17.17;9.57;;;;;;;;;;5076060;28;20207;-71
2022/09/21 06:52:52;;;;;;;10.93;9.50;;;;;;;;;;5076000;28;20203;-73
2022/09/21 06:55:19;;;;;;;16.70;10.25;;;;;;;;;;5076472;28;20204;-72
2022/09/21 06:57:46;;;;;;;16.83;9.63;;;;;;;;;;5076261;28;20198;-72
2022/09/21 07:00:14;;;;;;;21.23;9.98;;;;;;;;;;5075676;28;20296;-72
2022/09/21 07:02:44;;;;;;;12.30;9.35;;;;;;;;;;5075440;28;20290;-71
2022/09/21 07:05:11;;;;;;;11.25;9.35;;;;;;;;;;5075467;28;20201;-72
2022/09/21 07:07:40;;;;;;;12.43;9.15;;;;;;;;;;5075901;28;20204;-71
2022/09/21 07:10:08;;;;;;;18.40;8.98;;;;;;;;;;5075230;28;20243;-71
2022/09/21 07:12:35;;;;;;;19.05;8.77;;;;;;;;;;5075231;28;20658;-72
2022/09/21 07:15:03;;;;;;;13.20;9.30;;;;;;;;;;5075909;28;20198;-71
2022/09/21 07:17:32;;;;;;;15.43;8.73;;;;;;;;;;5075839;28;20300;-72
2022/09/21 07:20:00;;;;;;;15.27;8.75;;;;;;;;;;5075948;28;20194;-72
2022/09/21 07:22:28;;;;;;;11.85;8.20;;;;;;;;;;5075734;28;20197;-71
2022/09/21 07:24:57;;;;;;;10.55;7.40;;;;;;;;;;5075169;28;20259;-71
2022/09/21 07:27:25;;;;;;;10.27;7.95;;;;;;;;;;5074872;28;20229;-71
2022/09/21 07:29:52;;;;;;;13.77;10.15;;;;;;;;;;5076250;28;20236;-72
2022/09/21 07:32:20;;;;;;;13.70;8.88;;;;;;;;;;5075298;28;20204;-72
2022/09/21 07:34:47;;;;;;;9.20;8.30;;;;;;;;;;5075916;28;20285;-71
2022/09/21 07:37:15;;;;;;;8.70;7.80;;;;;;;;;;5075502;28;20202;-71
2022/09/21 07:39:42;;;;;;;10.35;7.30;;;;;;;;;;5075638;28;20289;-71
2022/09/21 07:42:10;;;;;;;9.10;8.10;;;;;;;;;;5074501;28;20201;-71
2022/09/21 07:44:38;;;;;;;12.02;8.40;;;;;;;;;;5075755;28;20436;-71
2022/09/21 07:47:05;;;;;;;8.48;7.40;;;;;;;;;;5074797;28;20260;-71
2022/09/21 07:49:32;;;;;;;16.10;8.70;;;;;;;;;;5075572;28;20224;-71
2022/09/21 07:52:00;;;;;;;8.40;7.60;;;;;;;;;;5075089;28;20226;-72
2022/09/21 07:54:27;;;;;;;8.87;8.00;;;;;;;;;;5074952;28;20451;-72
2022/09/21 07:59:41;;;;;;;10.15;8.20;;;;;;;;;;5075506;28;20205;-71
2022/09/21 08:02:08;;;;;;;12.83;8.07;;;;;;;;;;5074902;28;20200;-72
2022/09/21 08:04:35;;;;;;;10.02;9.02;;;;;;;;;;5074806;28;21035;-71
2022/09/21 08:07:02;;;;;;;9.40;8.60;;;;;;;;;;5075035;28;20264;-72
2022/09/21 08:09:30;;;;;;;13.10;11.70;;;;;;;;;;5075025;28;20217;-72
2022/09/21 08:12:00;;;;;;;12.70;10.35;;;;;;;;;;5074966;28;20942;-72
2022/09/21 08:14:28;;;;;;;12.38;10.05;;;;;;;;;;5074997;28;20186;-71
2022/09/21 08:16:56;;;;;;;12.57;11.30;;;;;;;;;;5074746;28;20259;-71
2022/09/21 08:19:25;;;;;;;12.40;11.20;;;;;;;;;;5074862;28;20224;-70
2022/09/21 08:21:55;;;;;;;11.97;10.70;;;;;;;;;;5074333;28;20445;-71
2022/09/21 08:24:22;;;;;;;13.15;10.90;;;;;;;;;;5074960;28;20440;-70
2022/09/21 08:26:51;;;;;;;15.73;11.90;;;;;;;;;;5094602;28;20346;-71
2022/09/21 08:29:18;;;;;;;12.75;11.15;;;;;;;;;;5094698;28;20479;-71
2022/09/21 08:31:46;;;;;;;17.23;11.33;;;;;;;;;;5095032;28;20198;-71
2022/09/21 08:34:15;;;;;;;14.40;13.10;;;;;;;;;;5094374;28;20465;-71
2022/09/21 08:36:42;;;;;;;15.40;12.25;;;;;;;;;;5094768;28;20201;-71
2022/09/21 08:39:09;;;;;;;13.47;11.93;;;;;;;;;;5094555;28;20234;-71
2022/09/21 08:41:46;;;;;;;13.82;12.05;;;;;;;;;;5094308;28;20984;-71
2022/09/21 08:44:16;;;;;;;17.08;14.70;;;;;;;;;;5094759;28;20238;-70
2022/09/21 08:46:44;;;;;;;18.83;14.13;;;;;;;;;;5095025;28;20233;-71
2022/09/21 08:49:15;;;;;;;14.83;13.33;;;;;;;;;;5094123;28;20867;-71
2022/09/21 08:51:48;;;;;;;15.65;12.95;;;;;;;;;;5094906;28;20506;-71
2022/09/21 08:54:17;;;;;;;17.60;14.10;;;;;;;;;;5093396;28;20272;-72
2022/09/21 08:56:44;;;;;;;14.70;13.20;;;;;;;;;;5094165;28;20451;-72
2022/09/21 08:59:14;;;;;;;13.70;12.40;;;;;;;;;;5094496;28;20839;-72
2022/09/21 09:01:50;;;;;;;12.87;11.70;;;;;;;;;;5093973;28;20504;-71
2022/09/21 09:04:28;;;;;;;16.67;12.37;;;;;;;;;;5093980;28;20420;-71
2022/09/21 09:07:03;;;;;;;14.60;13.10;;;;;;;;;;5094297;28;20490;-71
2022/09/21 09:09:46;;;;;;;12.67;11.30;;;;;;;;;;5093841;28;20484;-71
2022/09/21 09:12:36;;;;;;;13.57;10.97;;;;;;;;;;5094257;28;20466;-71
2022/09/21 09:15:21;;;;;;;16.93;12.70;;;;;;;;;;5093919;28;20439;-71
2022/09/21 09:17:51;;;;;;;17.20;11.90;;;;;;;;;;5091515;28;20440;-70
2022/09/21 09:20:28;;;;;;;13.13;11.83;;;;;;;;;;5092962;28;20519;-70
2022/09/21 09:23:03;;;;;;;12.70;11.40;;;;;;;;;;5093103;28;20432;-71
2022/09/21 09:25:34;;;;;;;18.13;11.60;;;;;;;;;;5092727;28;20488;-70
2022/09/21 09:28:06;;;;;;;13.53;12.10;;;;;;;;;;5092653;28;20499;-70
2022/09/21 09:30:44;;;;;;;20.37;15.50;;;;;;;;;;5092973;28;20436;-70
2022/09/21 09:33:16;;;;;;;13.00;11.20;;;;;;;;;;5093597;28;20523;-70
2022/09/21 09:35:49;;;;;;;18.53;11.07;;;;;;;;;;5093528;28;20464;-71
2022/09/21 09:38:25;;;;;;;11.00;9.80;;;;;;;;;;5093094;28;20852;-70
2022/09/21 09:40:59;;;;;;;15.00;11.37;;;;;;;;;;5092541;28;20427;-71
2022/09/21 09:43:36;;;;;;;12.47;11.27;;;;;;;;;;5092633;28;20424;-70
2022/09/21 09:46:09;;;;;;;11.33;10.03;;;;;;;;;;5093292;28;20511;-71
2022/09/21 09:48:45;;;;;;;14.03;10.50;;;;;;;;;;5092649;28;21006;-69
2022/09/21 09:51:13;;;;;;;10.63;9.17;;;;;;;;;;5093608;28;20463;-71
2022/09/21 09:53:46;;;;;;;11.37;10.27;;;;;;;;;;5092719;28;20521;-69
2022/09/21 09:56:18;;;;;;;12.73;9.20;;;;;;;;;;5092895;28;20550;-71
2022/09/21 09:58:53;;;;;;;14.13;9.30;;;;;;;;;;5092957;28;20444;-71
2022/09/21 10:01:42;;;;;;;12.93;9.07;;;;;;;;;;5093204;28;20442;-71
2022/09/21 10:04:13;;;;;;;10.90;8.17;;;;;;;;;;5093136;28;20420;-71
2022/09/21 10:06:44;;;;;;;13.57;8.63;;;;;;;;;;5092568;28;21022;-70
2022/09/21 10:09:26;;;;;;;9.47;8.43;;;;;;;;;;5092333;28;20404;-70
2022/09/21 10:11:56;;;;;;;7.57;6.77;;;;;;;;;;5092694;28;20428;-70
2022/09/21 10:14:24;;;;;;;8.10;5.87;;;;;;;;;;5093223;28;20840;-71
2022/09/21 10:16:52;;;;;;;15.63;6.67;;;;;;;;;;5092232;28;20518;-70
2022/09/21 10:19:21;;;;;;;11.47;7.00;;;;;;;;;;5092683;28;20436;-71
2022/09/21 10:21:57;;;;;;;8.60;7.33;;;;;;;;;;5092676;28;20845;-71
2022/09/21 10:24:27;;;;;;;8.10;6.90;;;;;;;;;;5092780;28;20430;-71
2022/09/21 10:26:57;;;;;;;8.03;5.20;;;;;;;;;;5092498;28;20484;-70
2022/09/21 10:29:30;;;;;;;7.97;4.10;;;;;;;;;;5092327;28;20483;-70
2022/09/21 10:32:03;;;;;;;4.47;3.43;;;;;;;;;;5092657;28;20903;-70
2022/09/21 10:34:31;;;;;;;8.70;6.57;;;;;;;;;;5092626;28;20421;-70
2022/09/21 10:36:59;;;;;;;5.27;4.23;;;;;;;;;;5092498;28;20592;-70
2022/09/21 10:39:28;;;;;;;6.57;3.20;;;;;;;;;;5092278;28;20445;-70
2022/09/21 10:41:58;;;;;;;8.70;7.00;;;;;;;;;;5092822;28;20523;-70
2022/09/21 10:44:27;;;;;;;3.37;3.07;;;;;;;;;;5092429;28;20466;-71
2022/09/21 10:46:55;;;;;;;6.13;2.77;;;;;;;;;;5092023;28;20930;-70
2022/09/21 10:49:24;;;;;;;8.20;2.83;;;;;;;;;;5092234;28;20449;-70
2022/09/21 10:51:54;;;;;;;5.10;3.33;;;;;;;;;;5092930;28;20492;-71
2022/09/21 10:54:27;;;;;;;5.20;3.00;;;;;;;;;;5091811;28;20449;-70
2022/09/21 10:56:57;;;;;;;5.13;2.83;;;;;;;;;;5092594;28;20430;-72
2022/09/21 10:59:25;;;;;;;4.57;3.30;;;;;;;;;;5092042;28;20933;-71
2022/09/21 11:01:54;;;;;;;12.43;4.60;;;;;;;;;;5092231;28;21006;-72
2022/09/21 11:04:26;;;;;;;8.10;4.13;;;;;;;;;;5092654;28;20454;-72
2022/09/21 11:06:57;;;;;;;5.90;3.80;;;;;;;;;;5092116;28;20460;-70
2022/09/21 11:09:26;;;;;;;4.90;3.10;;;;;;;;;;5092075;28;20819;-70
2022/09/21 11:11:56;;;;;;;5.97;4.00;;;;;;;;;;5092287;28;20454;-70
2022/09/21 11:14:36;;;;;;;8.53;3.90;;;;;;;;;;5092261;28;20438;-71
2022/09/21 11:17:08;;;;;;;3.70;3.40;;;;;;;;;;5094994;28;20522;-70
2022/09/21 11:19:40;;;;;;;4.10;3.00;;;;;;;;;;5096280;28;20432;-70
2022/09/21 11:22:09;;;;;;;6.57;3.13;;;;;;;;;;5095875;28;20973;-71
2022/09/21 11:24:42;;;;;;;5.43;3.80;;;;;;;;;;5096086;28;20452;-70
2022/09/21 11:27:17;;;;;;;6.53;2.97;;;;;;;;;;5095734;28;20504;-71
2022/09/21 11:29:51;;;;;;;5.13;2.70;;;;;;;;;;5095289;28;20462;-71
2022/09/21 11:32:26;;;;;;;5.50;2.80;;;;;;;;;;5095599;28;20421;-71
2022/09/21 11:35:10;;;;;;;9.90;3.37;;;;;;;;;;5095867;28;20444;-71
2022/09/21 11:37:48;;;;;;;5.30;3.67;;;;;;;;;;5095958;28;20442;-71
2022/09/21 11:40:25;;;;;;;7.53;2.80;;;;;;;;;;5095658;28;20533;-70
2022/09/21 11:42:58;;;;;;;2.47;2.20;;;;;;;;;;5095493;28;20453;-71
2022/09/21 11:45:33;;;;;;;5.00;2.27;;;;;;;;;;5096025;28;20517;-70
2022/09/21 11:48:07;;;;;;;2.80;1.90;;;;;;;;;;5095149;28;20503;-72
2022/09/21 11:50:48;;;;;;;2.90;2.37;;;;;;;;;;5095267;28;20425;-70
2022/09/21 11:53:24;;;;;;;4.40;2.40;;;;;;;;;;5095483;28;20426;-71
2022/09/21 11:55:58;;;;;;;7.20;2.67;;;;;;;;;;5095114;28;20457;-71
2022/09/21 11:58:31;;;;;;;4.17;2.43;;;;;;;;;;5095526;28;20947;-71
2022/09/21 12:01:10;;;;;;;2.93;2.30;;;;;;;;;;5095137;28;20510;-71
2022/09/21 12:03:45;;;;;;;4.43;2.23;;;;;;;;;;5095727;28;20471;-71
2022/09/21 12:06:18;;;;;;;3.43;2.00;;;;;;;;;;5095570;28;20503;-70
2022/09/21 12:09:01;;;;;;;5.70;2.47;;;;;;;;;;5095227;28;20989;-71
2022/09/21 12:11:32;;;;;;;4.30;1.83;;;;;;;;;;5092415;28;20417;-71
2022/09/21 12:14:03;;;;;;;3.03;1.97;;;;;;;;;;5095008;28;20463;-71
2022/09/21 12:16:37;;;;;;;6.80;2.60;;;;;;;;;;5095273;28;20432;-71
2022/09/21 12:19:07;;;;;;;5.70;2.40;;;;;;;;;;5095928;28;20440;-71
2022/09/21 12:21:36;;;;;;;3.73;1.83;;;;;;;;;;5095324;28;20424;-70
2022/09/21 12:24:08;;;;;;;3.30;1.80;;;;;;;;;;5095026;28;20447;-72
2022/09/21 12:26:41;;;;;;;3.87;2.30;;;;;;;;;;5094455;28;20442;-73
2022/09/21 12:29:24;;;;;;;2.60;2.10;;;;;;;;;;5095040;28;20486;-72
2022/09/21 12:31:59;;;;;;;2.43;1.67;;;;;;;;;;5094966;28;20512;-71
2022/09/21 12:34:28;;;;;;;4.83;1.90;;;;;;;;;;5094240;28;20501;-71
2022/09/21 12:37:00;;;;;;;3.93;2.33;;;;;;;;;;5094710;28;20445;-71
2022/09/21 12:39:30;;;;;;;8.03;1.93;;;;;;;;;;5093109;28;20477;-69
2022/09/21 12:42:03;;;;;;;3.27;1.83;;;;;;;;;;5093438;28;20442;-70
2022/09/21 12:44:34;;;;;;;5.23;2.97;;;;;;;;;;5094031;28;20427;-71
2022/09/21 12:47:09;;;;;;;6.73;2.17;;;;;;;;;;5093581;28;20981;-71
2022/09/21 12:49:39;;;;;;;3.40;2.40;;;;;;;;;;5094393;28;20429;-70
2022/09/21 12:52:07;;;;;;;5.80;1.80;;;;;;;;;;5094515;28;20509;-70
2022/09/21 12:54:38;;;;;;;4.30;2.43;;;;;;;;;;5094111;28;20477;-70
2022/09/21 12:57:08;;;;;;;3.30;2.43;;;;;;;;;;5094297;28;20515;-70
2022/09/21 12:59:41;;;;;;;4.60;2.10;;;;;;;;;;5094272;28;20541;-70
2022/09/21 13:02:18;;;;;;;5.33;2.20;;;;;;;;;;5093974;28;20424;-71
2022/09/21 13:05:04;;;;;;;4.00;2.33;;;;;;;;;;5093900;28;20449;-71
2022/09/21 13:07:39;;;;;;;5.03;2.00;;;;;;;;;;5093205;28;20471;-70
2022/09/21 13:10:16;;;;;;;5.90;2.20;;;;;;;;;;5093858;28;20427;-71
2022/09/21 13:12:45;;;;;;;5.83;2.23;;;;;;;;;;5093908;28;20443;-71
2022/09/21 13:15:14;;;;;;;3.40;2.10;;;;;;;;;;5093704;28;20488;-71
2022/09/21 13:17:47;;;;;;;5.57;2.23;;;;;;;;;;5093611;28;20478;-71
2022/09/21 13:20:19;;;;;;;5.77;2.10;;;;;;;;;;5093449;28;20433;-70
2022/09/21 13:22:47;;;;;;;4.70;2.40;;;;;;;;;;5093638;28;20439;-70
2022/09/21 13:25:22;;;;;;;2.47;1.93;;;;;;;;;;5093363;28;20443;-69
2022/09/21 13:28:00;;;;;;;3.63;1.87;;;;;;;;;;5092779;28;20485;-70
2022/09/21 13:30:31;;;;;;;2.03;1.80;;;;;;;;;;5093726;28;20456;-70
2022/09/21 13:33:03;;;;;;;10.03;2.27;;;;;;;;;;5093235;28;20487;-71
2022/09/21 13:36:02;;;;;;;5.80;2.20;;;;;;;;;;5093524;28;20907;-71
2022/09/21 13:38:36;;;;;;;4.80;2.40;;;;;;;;;;5010615;28;20498;-69
2022/09/21 13:41:04;;;;;;;2.80;1.87;;;;;;;;;;5079379;28;20685;-69
2022/09/21 13:43:47;;;;;;;4.20;2.03;;;;;;;;;;5093516;28;20470;-69
2022/09/21 13:46:32;;;;;;;4.00;2.03;;;;;;;;;;5092918;28;20438;-70
2022/09/21 13:49:02;;;;;;;3.83;1.80;;;;;;;;;;5093009;28;20466;-70
2022/09/21 13:51:33;;;;;;;4.57;2.10;;;;;;;;;;5092912;28;20467;-70
2022/09/21 13:54:01;;;;;;;3.53;1.80;;;;;;;;;;5092172;28;20446;-70
2022/09/21 13:56:32;;;;;;;3.27;2.00;;;;;;;;;;5092861;28;20462;-70
2022/09/21 13:59:00;;;;;;;3.50;1.90;;;;;;;;;;5093536;28;20941;-70
2022/09/21 14:01:35;;;;;;;5.30;2.07;;;;;;;;;;5093079;28;20531;-71
2022/09/21 14:04:07;;;;;;;6.40;2.13;;;;;;;;;;5092698;28;20440;-70
2022/09/21 14:06:34;;;;;;;5.63;2.30;;;;;;;;;;5092563;28;20448;-70
2022/09/21 14:09:04;;;;;;;2.73;1.73;;;;;;;;;;5092421;28;20989;-70
2022/09/21 14:11:32;;;;;;;3.73;1.77;;;;;;;;;;5093092;28;20473;-69
2022/09/21 14:14:21;;;;;;;2.80;1.70;;;;;;;;;;5092915;28;20453;-69
2022/09/21 14:16:54;;;;;;;3.50;1.90;;;;;;;;;;5093309;28;20426;-69
2022/09/21 14:19:41;;;;;;;3.87;1.90;;;;;;;;;;5093137;28;20435;-69
2022/09/21 14:22:27;;;;;;;3.37;1.97;;;;;;;;;;5092922;28;20902;-69
2022/09/21 14:25:10;;;;;;;2.37;1.83;;;;;;;;;;5092192;28;20449;-69
2022/09/21 14:27:41;;;;;;;2.57;2.00;;;;;;;;;;5090780;28;20490;-69
2022/09/21 14:30:18;;;;;;;5.07;1.80;;;;;;;;;;5092910;28;20837;-70
2022/09/21 14:32:47;;;;;;;2.33;2.00;;;;;;;;;;5093036;28;20425;-70
2022/09/21 14:35:18;;;;;;;3.63;1.80;;;;;;;;;;5092484;28;20525;-70
2022/09/21 14:37:48;;;;;;;2.17;1.87;;;;;;;;;;5092774;28;20852;-69
2022/09/21 14:40:19;;;;;;;4.60;1.50;;;;;;;;;;5093237;28;20451;-69
2022/09/21 14:42:48;;;;;;;4.90;2.17;;;;;;;;;;5092624;28;20435;-69
2022/09/21 14:45:17;;;;;;;5.10;2.50;;;;;;;;;;5092009;28;20538;-69
2022/09/21 14:47:58;;;;;;;8.03;2.63;;;;;;;;;;5091526;28;20447;-70
2022/09/21 14:50:34;;;;;;;1.70;1.60;;;;;;;;;;5092366;28;20431;-69
2022/09/21 14:53:17;;;;;;;6.63;2.00;;;;;;;;;;5096724;28;20506;-69
2022/09/21 14:56:02;;;;;;;3.80;1.67;;;;;;;;;;5096120;28;20442;-69
2022/09/21 14:58:39;;;;;;;1.83;1.47;;;;;;;;;;5095947;28;20445;-69